createdAt,value
2023-04-24T00:00:06.981Z,19.68
2023-04-24T00:02:34.511Z,18.46
2023-04-24T00:05:03.619Z,18.55
2023-04-24T00:07:31.268Z,18.45
2023-04-24T00:09:58.565Z,18.01
2023-04-24T00:12:26.146Z,18.10
2023-04-24T00:14:53.813Z,17.44
2023-04-24T00:17:21.763Z,17.02
2023-04-24T00:19:49.484Z,17.74
2023-04-24T00:22:16.871Z,18.00
2023-04-24T00:24:44.727Z,17.92
2023-04-24T00:27:11.864Z,18.02
2023-04-24T00:29:39.316Z,18.77
2023-04-24T00:32:06.749Z,18.95
2023-04-24T00:34:34.276Z,19.45
2023-04-24T00:37:01.720Z,19.18
2023-04-24T00:39:29.132Z,19.37
2023-04-24T00:41:56.114Z,20.23
2023-04-24T00:44:23.198Z,21.09
2023-04-24T00:46:55.538Z,20.70
2023-04-24T00:49:22.715Z,21.27
2023-04-24T00:51:51.955Z,21.39
2023-04-24T00:54:19.237Z,21.17
2023-04-24T00:56:46.519Z,20.51
2023-04-24T00:59:13.904Z,19.80
2023-04-24T01:01:44.847Z,20.00
2023-04-24T01:04:12.771Z,19.15
2023-04-24T01:06:40.787Z,18.49
2023-04-24T01:09:09.672Z,16.87
2023-04-24T01:11:37.167Z,15.58
2023-04-24T01:14:06.069Z,14.83
2023-04-24T01:16:33.215Z,13.97
2023-04-24T01:19:01.544Z,13.06
2023-04-24T01:21:29.731Z,12.33
2023-04-24T01:23:57.828Z,12.94
2023-04-24T01:26:26.166Z,12.06
2023-04-24T01:28:53.415Z,12.40
2023-04-24T01:31:20.597Z,12.48
2023-04-24T01:33:47.972Z,12.28
2023-04-24T01:36:15.322Z,12.46
2023-04-24T01:38:42.637Z,12.69
2023-04-24T01:41:10.235Z,12.74
2023-04-24T01:43:37.234Z,12.88
2023-04-24T01:46:04.701Z,12.94
2023-04-24T01:48:32.003Z,13.06
2023-04-24T01:50:59.118Z,13.46
2023-04-24T01:53:26.421Z,13.52
2023-04-24T01:55:54.074Z,13.87
2023-04-24T01:58:21.168Z,13.90
2023-04-24T02:00:48.615Z,14.02
2023-04-24T02:03:16.065Z,14.68
2023-04-24T02:05:46.365Z,14.19
2023-04-24T02:08:13.432Z,14.65
2023-04-24T02:10:40.659Z,14.66
2023-04-24T02:13:08.064Z,14.70
2023-04-24T02:15:37.071Z,14.48
2023-04-24T02:18:04.139Z,14.83
2023-04-24T02:20:34.682Z,14.64
2023-04-24T02:23:02.400Z,14.58
2023-04-24T02:25:29.504Z,14.43
2023-04-24T02:27:56.925Z,14.82
2023-04-24T02:30:23.970Z,14.59
2023-04-24T02:32:51.698Z,14.56
2023-04-24T02:35:18.934Z,14.49
2023-04-24T02:37:46.508Z,14.31
2023-04-24T02:40:13.582Z,14.23
2023-04-24T02:42:40.706Z,14.07
2023-04-24T02:45:08.889Z,14.33
2023-04-24T02:47:36.413Z,14.25
2023-04-24T02:50:04.107Z,14.22
2023-04-24T02:52:31.765Z,13.87
2023-04-24T02:54:58.740Z,13.84
2023-04-24T02:57:26.179Z,13.80
2023-04-24T02:59:54.709Z,13.44
2023-04-24T03:02:22.121Z,13.56
2023-04-24T03:04:49.471Z,13.81
2023-04-24T03:07:16.892Z,13.64
2023-04-24T03:09:44.813Z,13.50
2023-04-24T03:12:12.051Z,13.51
2023-04-24T03:14:40.329Z,13.29
2023-04-24T03:17:08.116Z,13.30
2023-04-24T03:19:35.107Z,13.07
2023-04-24T03:22:10.074Z,13.36
2023-04-24T03:24:38.873Z,13.46
2023-04-24T03:27:06.424Z,13.03
2023-04-24T03:29:58.430Z,13.24
2023-04-24T03:32:33.082Z,12.75
2023-04-24T03:35:01.388Z,12.92
2023-04-24T03:37:28.741Z,12.98
2023-04-24T03:40:19.038Z,12.77
2023-04-24T03:42:46.749Z,12.87
2023-04-24T03:45:13.861Z,13.04
2023-04-24T03:47:44.110Z,12.42
2023-04-24T03:50:13.043Z,12.95
2023-04-24T03:52:42.598Z,12.46
2023-04-24T03:55:13.998Z,12.50
2023-04-24T03:57:45.967Z,13.10
2023-04-24T04:00:21.745Z,13.22
2023-04-24T04:02:57.563Z,12.74
2023-04-24T04:05:25.392Z,12.45
2023-04-24T04:07:52.491Z,12.40
2023-04-24T04:10:20.103Z,12.60
2023-04-24T04:12:47.191Z,12.61
2023-04-24T04:15:14.904Z,12.91
2023-04-24T04:17:42.429Z,12.74
2023-04-24T04:20:11.162Z,12.84
2023-04-24T04:22:42.003Z,12.89
2023-04-24T04:25:12.394Z,12.69
2023-04-24T04:27:40.088Z,12.95
2023-04-24T04:30:11.533Z,12.96
2023-04-24T04:32:48.163Z,13.25
2023-04-24T04:35:15.767Z,13.87
2023-04-24T04:37:43.273Z,13.08
2023-04-24T04:40:30.818Z,13.60
2023-04-24T04:43:03.384Z,13.47
2023-04-24T04:45:36.376Z,13.43
2023-04-24T04:48:22.413Z,13.88
2023-04-24T04:50:51.043Z,13.13
2023-04-24T04:53:20.283Z,13.03
2023-04-24T04:55:47.739Z,12.83
2023-04-24T04:58:17.094Z,12.40
2023-04-24T05:00:45.683Z,12.70
2023-04-24T05:03:21.075Z,12.48
2023-04-24T05:05:55.332Z,12.67
2023-04-24T05:08:27.459Z,12.96
2023-04-24T05:10:55.774Z,12.77
2023-04-24T05:13:32.159Z,12.82
2023-04-24T05:16:11.215Z,12.32
2023-04-24T05:18:39.686Z,12.60
2023-04-24T05:21:08.743Z,12.75
2023-04-24T05:23:38.553Z,12.91
2023-04-24T05:26:07.723Z,12.43
2023-04-24T05:28:37.237Z,12.44
2023-04-24T05:31:08.755Z,12.43
2023-04-24T05:33:36.255Z,12.76
2023-04-24T05:36:03.977Z,12.52
2023-04-24T05:38:31.153Z,12.57
2023-04-24T05:40:58.930Z,12.21
2023-04-24T05:43:26.136Z,12.63
2023-04-24T05:45:54.218Z,12.54
2023-04-24T05:48:23.411Z,12.69
2023-04-24T05:50:51.462Z,12.36
2023-04-24T05:53:19.134Z,12.41
2023-04-24T05:55:46.312Z,12.70
2023-04-24T05:58:13.470Z,12.44
2023-04-24T06:00:43.230Z,12.43
2023-04-24T06:03:10.916Z,12.26
2023-04-24T06:05:38.228Z,11.69
2023-04-24T06:08:05.483Z,11.52
2023-04-24T06:10:36.872Z,11.49
2023-04-24T06:13:05.568Z,11.86
2023-04-24T06:15:34.712Z,11.49
2023-04-24T06:18:07.981Z,11.34
2023-04-24T06:20:36.800Z,11.67
2023-04-24T06:23:04.608Z,11.36
2023-04-24T06:25:33.776Z,11.62
2023-04-24T06:28:01.180Z,11.71
2023-04-24T06:30:30.764Z,11.82
2023-04-24T06:33:03.144Z,12.44
2023-04-24T06:35:39.066Z,13.08
2023-04-24T06:38:06.912Z,12.80
2023-04-24T06:40:34.281Z,13.29
2023-04-24T06:43:03.474Z,13.47
2023-04-24T06:45:30.868Z,13.62
2023-04-24T06:47:58.103Z,13.95
2023-04-24T06:50:26.143Z,14.05
2023-04-24T06:52:53.562Z,14.18
2023-04-24T06:55:20.632Z,14.24
2023-04-24T06:57:48.116Z,14.39
2023-04-24T07:00:16.538Z,14.08
2023-04-24T07:02:44.258Z,14.35
2023-04-24T07:05:13.363Z,13.84
2023-04-24T07:07:41.008Z,13.84
2023-04-24T07:10:09.305Z,13.96
2023-04-24T07:12:36.797Z,13.78
2023-04-24T07:15:04.713Z,13.25
2023-04-24T07:17:32.027Z,13.12
2023-04-24T07:19:59.480Z,13.10
2023-04-24T07:22:26.862Z,13.10
2023-04-24T07:24:54.371Z,12.34
2023-04-24T07:27:21.602Z,12.43
2023-04-24T07:29:49.173Z,12.38
2023-04-24T07:32:16.512Z,12.02
2023-04-24T07:34:43.559Z,11.86
2023-04-24T07:37:11.263Z,11.63
2023-04-24T07:39:38.365Z,11.31
2023-04-24T07:42:05.503Z,11.36
2023-04-24T07:44:32.901Z,11.35
2023-04-24T07:47:00.520Z,11.05
2023-04-24T07:49:28.889Z,11.28
2023-04-24T07:51:56.484Z,11.92
2023-04-24T07:54:24.119Z,12.11
2023-04-24T07:56:51.485Z,12.13
2023-04-24T07:59:21.628Z,12.24
2023-04-24T08:01:48.880Z,12.49
2023-04-24T08:04:16.814Z,12.17
2023-04-24T08:06:44.336Z,12.21
2023-04-24T08:09:11.434Z,12.17
2023-04-24T08:11:38.550Z,12.25
2023-04-24T08:14:05.858Z,12.37
2023-04-24T08:16:34.142Z,12.06
2023-04-24T08:19:01.562Z,11.84
2023-04-24T08:21:28.863Z,11.68
2023-04-24T08:23:56.207Z,11.72
2023-04-24T08:26:23.552Z,11.77
2023-04-24T08:28:50.712Z,12.03
2023-04-24T08:31:18.005Z,12.29
2023-04-24T08:33:46.872Z,12.81
2023-04-24T08:36:14.072Z,13.05
2023-04-24T08:38:43.135Z,13.21
2023-04-24T08:41:10.943Z,13.38
2023-04-24T08:43:38.213Z,13.36
2023-04-24T08:46:09.082Z,13.99
2023-04-24T08:48:39.295Z,13.54
2023-04-24T08:51:07.841Z,13.52
2023-04-24T08:56:03.414Z,13.86
2023-04-24T08:58:31.376Z,13.89
2023-04-24T09:00:59.245Z,14.04
2023-04-24T09:03:28.219Z,14.21
2023-04-24T09:05:55.922Z,14.36
2023-04-24T09:08:25.275Z,14.44
2023-04-24T09:10:52.653Z,14.52
2023-04-24T09:13:20.815Z,14.52
2023-04-24T09:15:48.222Z,14.70
2023-04-24T09:18:15.502Z,14.60
2023-04-24T09:20:59.516Z,14.60
2023-04-24T09:23:29.227Z,13.51
2023-04-24T09:25:56.844Z,13.16
2023-04-24T09:28:31.328Z,12.81
2023-04-24T09:31:16.407Z,13.07
2023-04-24T09:34:05.788Z,12.97
2023-04-24T09:36:38.422Z,12.76
2023-04-24T09:39:12.529Z,12.77
2023-04-24T09:41:52.635Z,12.86
2023-04-24T09:44:23.552Z,12.79
2023-04-24T09:46:52.496Z,12.86
2023-04-24T09:49:30.349Z,12.78
2023-04-24T09:52:08.185Z,12.89
2023-04-24T09:54:37.586Z,12.65
2023-04-24T09:57:05.130Z,12.39
2023-04-24T09:59:32.512Z,12.56
2023-04-24T10:02:00.587Z,12.15
2023-04-24T10:04:29.240Z,12.69
2023-04-24T10:06:57.292Z,12.26
2023-04-24T10:09:27.330Z,12.33
2023-04-24T10:11:55.485Z,12.37
2023-04-24T10:14:24.233Z,12.17
2023-04-24T10:16:53.976Z,12.29
2023-04-24T10:19:21.626Z,12.37
2023-04-24T10:21:49.115Z,12.34
2023-04-24T10:24:17.648Z,12.32
2023-04-24T10:26:45.998Z,12.18
2023-04-24T10:29:14.021Z,12.26
2023-04-24T10:31:42.252Z,12.43
2023-04-24T10:34:10.373Z,11.93
2023-04-24T10:36:46.077Z,12.09
2023-04-24T10:39:14.132Z,12.03
2023-04-24T10:41:41.109Z,12.13
2023-04-24T10:44:09.329Z,12.17
2023-04-24T10:46:37.174Z,11.90
2023-04-24T10:49:08.509Z,12.56
2023-04-24T10:51:53.960Z,12.37
2023-04-24T10:54:38.122Z,12.33
2023-04-24T10:57:21.265Z,12.49
2023-04-24T10:59:49.127Z,12.29
2023-04-24T11:02:16.338Z,12.47
2023-04-24T11:04:44.039Z,12.39
2023-04-24T11:07:11.978Z,12.24
2023-04-24T11:09:41.153Z,12.16
2023-04-24T11:12:12.566Z,12.19
2023-04-24T11:14:58.699Z,12.36
2023-04-24T11:17:38.616Z,12.21
2023-04-24T11:20:26.785Z,12.00
2023-04-24T11:22:56.693Z,12.21
2023-04-24T11:25:24.121Z,12.24
2023-04-24T11:27:51.766Z,12.28
2023-04-24T11:30:19.590Z,12.16
2023-04-24T11:32:51.411Z,12.28
2023-04-24T11:35:20.348Z,12.42
2023-04-24T11:40:28.870Z,12.77
2023-04-24T11:42:56.779Z,12.93
2023-04-24T11:45:25.820Z,13.12
2023-04-24T11:47:53.324Z,12.91
2023-04-24T11:50:26.501Z,13.08
2023-04-24T11:52:54.202Z,13.29
2023-04-24T11:55:21.831Z,13.22
2023-04-24T11:57:59.310Z,13.52
2023-04-24T12:00:31.271Z,13.43
2023-04-24T12:03:11.531Z,13.47
2023-04-24T12:05:40.066Z,13.43
2023-04-24T12:08:07.772Z,13.77
2023-04-24T12:10:35.539Z,13.93
2023-04-24T12:13:02.958Z,13.84
2023-04-24T12:15:30.190Z,13.77
2023-04-24T12:17:57.957Z,13.98
2023-04-24T12:20:29.962Z,14.07
2023-04-24T12:22:58.085Z,13.93
2023-04-24T12:25:32.708Z,14.54
2023-04-24T12:28:06.333Z,14.42
2023-04-24T12:30:35.123Z,14.61
2023-04-24T12:33:03.890Z,14.64
2023-04-24T12:35:36.331Z,15.15
2023-04-24T12:38:14.535Z,15.16
2023-04-24T12:40:42.632Z,15.29
2023-04-24T12:43:17.869Z,15.28
2023-04-24T12:45:48.388Z,15.29
2023-04-24T12:48:15.977Z,15.13
2023-04-24T12:50:46.047Z,15.57
2023-04-24T12:53:14.861Z,15.29
2023-04-24T12:55:42.486Z,15.88
2023-04-24T12:58:10.134Z,15.73
2023-04-24T13:00:38.467Z,15.57
2023-04-24T13:03:05.935Z,15.54
2023-04-24T13:05:33.114Z,15.99
2023-04-24T13:08:00.534Z,15.54
2023-04-24T13:10:27.871Z,16.05
2023-04-24T13:12:55.062Z,16.26
2023-04-24T13:15:22.336Z,16.00
2023-04-24T13:17:50.147Z,16.17
2023-04-24T13:20:18.037Z,16.08
2023-04-24T13:22:45.504Z,16.75
2023-04-24T13:25:13.083Z,16.04
2023-04-24T13:27:40.645Z,16.46
2023-04-24T13:30:08.453Z,16.62
2023-04-24T13:32:36.414Z,16.67
2023-04-24T13:35:04.404Z,16.62
2023-04-24T13:37:32.906Z,16.61
2023-04-24T13:40:00.134Z,16.64
2023-04-24T13:42:27.572Z,16.72
2023-04-24T13:44:54.843Z,16.29
2023-04-24T13:47:22.251Z,16.31
2023-04-24T13:49:49.798Z,16.43
2023-04-24T13:52:17.428Z,16.15
2023-04-24T13:54:44.410Z,16.65
2023-04-24T13:57:12.195Z,16.39
2023-04-24T13:59:39.392Z,16.63
2023-04-24T14:02:06.553Z,16.65
2023-04-24T14:04:34.212Z,16.70
2023-04-24T14:07:01.457Z,16.49
2023-04-24T14:09:28.922Z,16.79
2023-04-24T14:11:56.238Z,16.62
2023-04-24T14:14:23.665Z,16.54
2023-04-24T14:16:51.023Z,17.36
2023-04-24T14:19:18.530Z,17.09
2023-04-24T14:21:45.820Z,16.89
2023-04-24T14:24:13.346Z,16.80
2023-04-24T14:26:40.638Z,17.29
2023-04-24T14:29:14.836Z,17.88
2023-04-24T14:31:43.018Z,18.09
2023-04-24T14:34:10.521Z,18.00
2023-04-24T14:36:37.705Z,18.35
2023-04-24T14:39:07.428Z,18.85
2023-04-24T14:41:38.314Z,18.54
2023-04-24T14:44:05.988Z,18.61
2023-04-24T14:46:33.410Z,19.20
2023-04-24T14:49:01.137Z,18.79
2023-04-24T14:51:28.449Z,18.65
2023-04-24T14:53:55.665Z,19.04
2023-04-24T14:56:23.852Z,19.11
2023-04-24T14:58:51.158Z,19.59
2023-04-24T15:01:19.137Z,19.29
2023-04-24T15:03:47.004Z,19.81
2023-04-24T15:06:14.718Z,19.89
2023-04-24T15:08:42.866Z,19.98
2023-04-24T15:11:10.735Z,19.13
2023-04-24T15:13:37.741Z,19.78
2023-04-24T15:16:06.039Z,19.88
2023-04-24T15:18:33.813Z,19.98
2023-04-24T15:21:02.644Z,20.45
2023-04-24T15:23:29.764Z,20.57
2023-04-24T15:25:57.618Z,20.72
2023-04-24T15:28:25.799Z,20.38
2023-04-24T15:30:52.743Z,21.22
2023-04-24T15:33:20.353Z,21.01
2023-04-24T15:35:49.406Z,21.05
2023-04-24T15:38:16.946Z,21.10
2023-04-24T15:40:45.634Z,21.49
2023-04-24T15:43:12.978Z,21.22
2023-04-24T15:45:40.537Z,21.95
2023-04-24T15:48:07.885Z,21.59
2023-04-24T15:50:35.022Z,22.11
2023-04-24T15:53:02.150Z,22.12
2023-04-24T15:55:29.525Z,22.13
2023-04-24T15:57:57.440Z,22.36
2023-04-24T16:00:24.963Z,22.39
2023-04-24T16:02:52.828Z,22.46
2023-04-24T16:05:20.384Z,22.85
2023-04-24T16:07:47.487Z,22.12
2023-04-24T16:10:14.862Z,22.40
2023-04-24T16:12:42.008Z,22.85
2023-04-24T16:15:10.478Z,23.04
2023-04-24T16:17:37.699Z,22.74
2023-04-24T16:20:05.387Z,23.13
2023-04-24T16:22:32.339Z,22.82
2023-04-24T16:24:59.969Z,22.96
2023-04-24T16:27:27.013Z,23.20
2023-04-24T16:29:54.879Z,23.32
2023-04-24T16:32:23.934Z,23.59
2023-04-24T16:34:51.638Z,23.61
2023-04-24T16:37:19.152Z,23.54
2023-04-24T16:39:46.377Z,23.58
2023-04-24T16:42:14.355Z,23.85
2023-04-24T16:44:42.185Z,23.83
2023-04-24T16:47:10.300Z,23.54
2023-04-24T16:49:37.621Z,24.17
2023-04-24T16:52:04.962Z,24.16
2023-04-24T16:54:35.294Z,24.08
2023-04-24T16:57:03.233Z,24.40
2023-04-24T16:59:33.960Z,23.88
2023-04-24T17:02:01.365Z,24.40
2023-04-24T17:04:29.362Z,23.91
2023-04-24T17:06:56.823Z,24.13
2023-04-24T17:09:24.190Z,23.74
2023-04-24T17:11:51.601Z,23.28
2023-04-24T17:14:19.049Z,24.60
2023-04-24T17:16:46.306Z,24.23
2023-04-24T17:19:13.881Z,24.79
2023-04-24T17:21:41.156Z,24.79
2023-04-24T17:24:08.342Z,24.60
2023-04-24T17:26:35.712Z,24.99
2023-04-24T17:29:03.319Z,24.95
2023-04-24T17:31:30.708Z,24.64
2023-04-24T17:33:59.006Z,24.59
2023-04-24T17:36:26.060Z,24.87
2023-04-24T17:38:53.450Z,24.77
2023-04-24T17:41:21.234Z,25.05
2023-04-24T17:43:48.565Z,24.98
2023-04-24T17:46:15.922Z,24.90
2023-04-24T17:48:43.196Z,24.73
2023-04-24T17:51:10.542Z,24.87
2023-04-24T17:53:37.920Z,24.85
2023-04-24T17:56:05.675Z,24.87
2023-04-24T17:58:34.577Z,25.40
2023-04-24T18:01:02.758Z,25.59
2023-04-24T18:03:30.311Z,26.13
2023-04-24T18:05:57.958Z,26.09
2023-04-24T18:08:25.398Z,26.28
2023-04-24T18:10:52.283Z,26.09
2023-04-24T18:13:19.896Z,26.62
2023-04-24T18:15:47.227Z,26.44
2023-04-24T18:18:15.070Z,26.76
2023-04-24T18:20:42.034Z,26.76
2023-04-24T18:23:09.129Z,27.08
2023-04-24T18:25:36.673Z,26.27
2023-04-24T18:28:04.101Z,26.46
2023-04-24T18:30:32.146Z,26.54
2023-04-24T18:33:00.067Z,27.12
2023-04-24T18:35:27.541Z,26.36
2023-04-24T18:37:54.896Z,26.60
2023-04-24T18:40:22.259Z,26.39
2023-04-24T18:42:50.034Z,27.12
2023-04-24T18:45:16.990Z,26.57
2023-04-24T18:47:44.517Z,27.11
2023-04-24T18:50:12.223Z,26.96
2023-04-24T18:52:39.754Z,26.94
2023-04-24T18:55:07.358Z,27.10
2023-04-24T18:57:34.998Z,26.96
2023-04-24T19:00:02.481Z,27.13
2023-04-24T19:02:29.820Z,26.92
2023-04-24T19:04:57.080Z,26.94
2023-04-24T19:07:24.678Z,27.56
2023-04-24T19:09:51.969Z,27.94
2023-04-24T19:12:20.991Z,27.59
2023-04-24T19:14:51.941Z,28.19
2023-04-24T19:17:24.748Z,27.97
2023-04-24T19:19:52.196Z,27.68
2023-04-24T19:22:20.621Z,27.86
2023-04-24T19:24:48.024Z,28.00
2023-04-24T19:27:15.193Z,28.20
2023-04-24T19:29:43.035Z,28.08
2023-04-24T19:32:10.595Z,28.01
2023-04-24T19:34:40.473Z,28.04
2023-04-24T19:37:07.932Z,27.80
2023-04-24T19:39:35.339Z,27.83
2023-04-24T19:42:06.685Z,28.20
2023-04-24T19:44:35.020Z,27.85
2023-04-24T19:47:02.346Z,28.23
2023-04-24T19:49:29.360Z,28.22
2023-04-24T19:51:57.006Z,28.26
2023-04-24T19:54:24.548Z,28.73
2023-04-24T19:56:51.931Z,28.71
2023-04-24T19:59:19.309Z,28.41
2023-04-24T20:01:46.629Z,28.52
2023-04-24T20:04:14.459Z,28.33
2023-04-24T20:06:41.948Z,28.78
2023-04-24T20:09:09.670Z,28.72
2023-04-24T20:11:36.657Z,28.54
2023-04-24T20:14:03.956Z,28.51
2023-04-24T20:16:31.427Z,28.99
2023-04-24T20:18:59.437Z,28.70
2023-04-24T20:21:27.605Z,29.29
2023-04-24T20:23:54.732Z,29.05
2023-04-24T20:26:21.881Z,29.05
2023-04-24T20:28:49.666Z,28.74
2023-04-24T20:31:17.292Z,29.07
2023-04-24T20:33:45.672Z,29.05
2023-04-24T20:36:13.058Z,29.21
2023-04-24T20:38:40.133Z,29.80
2023-04-24T20:41:10.037Z,29.74
2023-04-24T20:43:37.264Z,29.84
2023-04-24T20:46:04.397Z,29.69
2023-04-24T20:48:31.831Z,30.26
2023-04-24T20:50:59.003Z,30.26
2023-04-24T20:53:26.069Z,30.44
2023-04-24T20:55:53.140Z,31.06
2023-04-24T20:58:23.600Z,31.07
2023-04-24T21:00:51.506Z,31.82
2023-04-24T21:03:19.582Z,32.38
2023-04-24T21:05:46.729Z,33.45
2023-04-24T21:08:13.793Z,33.75
2023-04-24T21:10:41.465Z,34.31
2023-04-24T21:13:08.695Z,34.39
2023-04-24T21:15:36.077Z,34.16
2023-04-24T21:18:03.313Z,33.98
2023-04-24T21:20:30.584Z,33.99
2023-04-24T21:22:57.723Z,34.67
2023-04-24T21:25:24.707Z,34.42
2023-04-24T21:27:52.082Z,35.21
2023-04-24T21:30:22.035Z,35.33
2023-04-24T21:32:49.383Z,35.52
2023-04-24T21:35:16.723Z,35.27
2023-04-24T21:37:44.136Z,35.50
2023-04-24T21:40:11.231Z,35.37
2023-04-24T21:42:39.143Z,35.79
2023-04-24T21:45:07.104Z,35.99
2023-04-24T21:47:34.480Z,36.25
2023-04-24T21:50:01.948Z,36.29
2023-04-24T21:52:29.247Z,36.57
2023-04-24T21:54:56.453Z,37.52
2023-04-24T21:57:24.084Z,37.97
2023-04-24T21:59:51.528Z,37.86
2023-04-24T22:02:18.811Z,39.09
2023-04-24T22:04:46.346Z,39.84
2023-04-24T22:07:13.591Z,40.60
2023-04-24T22:09:40.973Z,41.02
2023-04-24T22:12:08.328Z,41.58
2023-04-24T22:14:35.608Z,42.12
2023-04-24T22:17:02.958Z,42.75
2023-04-24T22:19:30.807Z,42.97
2023-04-24T22:21:58.118Z,42.91
2023-04-24T22:24:25.373Z,43.61
2023-04-24T22:26:52.910Z,43.64
2023-04-24T22:29:20.206Z,44.67
2023-04-24T22:31:47.191Z,44.19
2023-04-24T22:34:16.785Z,44.84
2023-04-24T22:36:43.852Z,45.39
2023-04-24T22:39:15.857Z,45.18
2023-04-24T22:41:43.145Z,45.21
2023-04-24T22:44:10.781Z,45.98
2023-04-24T22:46:38.325Z,45.94
2023-04-24T22:49:05.733Z,46.25
2023-04-24T22:51:33.250Z,46.45
2023-04-24T22:54:02.624Z,46.78
2023-04-24T22:56:30.102Z,46.81
2023-04-24T22:58:58.305Z,47.14
2023-04-24T23:01:28.356Z,47.32
2023-04-24T23:03:56.373Z,47.25
2023-04-24T23:06:23.872Z,47.31
2023-04-24T23:08:51.199Z,47.25
2023-04-24T23:11:19.885Z,47.17
2023-04-24T23:13:47.208Z,47.54
2023-04-24T23:16:14.826Z,47.04
2023-04-24T23:18:42.416Z,47.08
2023-04-24T23:21:09.408Z,47.41
2023-04-24T23:23:36.764Z,47.13
2023-04-24T23:26:04.307Z,46.93
2023-04-24T23:28:31.539Z,47.09
2023-04-24T23:30:58.865Z,47.60
2023-04-24T23:33:27.981Z,47.33
2023-04-24T23:35:55.727Z,47.55
2023-04-24T23:38:22.760Z,47.29
2023-04-24T23:40:53.326Z,47.24
2023-04-24T23:43:20.666Z,47.11
2023-04-24T23:45:48.058Z,46.91
2023-04-24T23:48:15.178Z,46.92
2023-04-24T23:50:43.559Z,46.88
2023-04-24T23:53:10.714Z,46.32
2023-04-24T23:55:38.330Z,46.45
2023-04-24T23:58:05.733Z,46.34
